sensor_id;sensor_type;location;lat;lon;timestamp;P1;durP1;ratioP1;P2;durP2;ratioP2
15878;SDS011;61999;51.514;14.614;2024-01-16T00:02:17;3.73;;;2.10;;
15878;SDS011;61999;51.514;14.614;2024-01-16T00:04:45;2.30;;;1.90;;
15878;SDS011;61999;51.514;14.614;2024-01-16T00:07:14;3.00;;;2.07;;
15878;SDS011;61999;51.514;14.614;2024-01-16T00:09:42;4.27;;;3.07;;
15878;SDS011;61999;51.514;14.614;2024-01-16T00:12:10;3.10;;;2.10;;
15878;SDS011;61999;51.514;14.614;2024-01-16T00:14:38;2.03;;;1.83;;
15878;SDS011;61999;51.514;14.614;2024-01-16T00:17:06;3.20;;;1.77;;
15878;SDS011;61999;51.514;14.614;2024-01-16T00:19:34;4.60;;;2.10;;
15878;SDS011;61999;51.514;14.614;2024-01-16T00:22:02;2.83;;;1.93;;
15878;SDS011;61999;51.514;14.614;2024-01-16T00:24:32;2.27;;;1.83;;
15878;SDS011;61999;51.514;14.614;2024-01-16T00:27:00;2.47;;;2.27;;
15878;SDS011;61999;51.514;14.614;2024-01-16T00:29:28;2.37;;;2.00;;
15878;SDS011;61999;51.514;14.614;2024-01-16T00:31:57;3.00;;;1.90;;
15878;SDS011;61999;51.514;14.614;2024-01-16T00:34:25;4.00;;;1.90;;
15878;SDS011;61999;51.514;14.614;2024-01-16T00:36:53;1.97;;;1.60;;
15878;SDS011;61999;51.514;14.614;2024-01-16T00:39:20;2.80;;;1.73;;
15878;SDS011;61999;51.514;14.614;2024-01-16T00:41:50;3.00;;;2.13;;
15878;SDS011;61999;51.514;14.614;2024-01-16T00:44:18;1.90;;;1.67;;
15878;SDS011;61999;51.514;14.614;2024-01-16T00:46:46;1.60;;;1.50;;
15878;SDS011;61999;51.514;14.614;2024-01-16T00:49:14;1.53;;;1.43;;
15878;SDS011;61999;51.514;14.614;2024-01-16T00:51:44;1.47;;;1.37;;
15878;SDS011;61999;51.514;14.614;2024-01-16T00:54:12;2.10;;;1.63;;
15878;SDS011;61999;51.514;14.614;2024-01-16T00:56:41;1.47;;;1.33;;
15878;SDS011;61999;51.514;14.614;2024-01-16T00:59:10;2.90;;;1.80;;
15878;SDS011;61999;51.514;14.614;2024-01-16T01:01:38;1.57;;;1.47;;
15878;SDS011;61999;51.514;14.614;2024-01-16T01:04:06;1.40;;;1.30;;
15878;SDS011;61999;51.514;14.614;2024-01-16T01:06:35;1.73;;;1.63;;
15878;SDS011;61999;51.514;14.614;2024-01-16T01:09:03;1.47;;;1.30;;
15878;SDS011;61999;51.514;14.614;2024-01-16T01:11:31;3.43;;;1.67;;
15878;SDS011;61999;51.514;14.614;2024-01-16T01:13:59;2.50;;;1.60;;
15878;SDS011;61999;51.514;14.614;2024-01-16T01:16:28;1.20;;;1.10;;
15878;SDS011;61999;51.514;14.614;2024-01-16T01:18:56;4.23;;;1.97;;
15878;SDS011;61999;51.514;14.614;2024-01-16T01:21:25;1.53;;;1.37;;
15878;SDS011;61999;51.514;14.614;2024-01-16T01:23:53;1.93;;;1.23;;
15878;SDS011;61999;51.514;14.614;2024-01-16T01:26:21;1.67;;;1.27;;
15878;SDS011;61999;51.514;14.614;2024-01-16T01:28:49;1.50;;;1.10;;
15878;SDS011;61999;51.514;14.614;2024-01-16T01:31:17;1.30;;;1.20;;
15878;SDS011;61999;51.514;14.614;2024-01-16T01:33:46;1.30;;;1.20;;
15878;SDS011;61999;51.514;14.614;2024-01-16T01:36:14;1.60;;;1.17;;
15878;SDS011;61999;51.514;14.614;2024-01-16T01:38:42;2.70;;;1.50;;
15878;SDS011;61999;51.514;14.614;2024-01-16T01:41:10;1.17;;;1.07;;
15878;SDS011;61999;51.514;14.614;2024-01-16T01:43:38;1.97;;;1.30;;
15878;SDS011;61999;51.514;14.614;2024-01-16T01:46:08;1.30;;;1.20;;
15878;SDS011;61999;51.514;14.614;2024-01-16T01:48:39;1.30;;;1.13;;
15878;SDS011;61999;51.514;14.614;2024-01-16T01:51:10;1.33;;;1.23;;
15878;SDS011;61999;51.514;14.614;2024-01-16T01:53:41;1.57;;;1.47;;
15878;SDS011;61999;51.514;14.614;2024-01-16T01:56:14;1.60;;;1.27;;
15878;SDS011;61999;51.514;14.614;2024-01-16T01:58:46;4.03;;;2.20;;
15878;SDS011;61999;51.514;14.614;2024-01-16T02:01:17;2.27;;;1.80;;
15878;SDS011;61999;51.514;14.614;2024-01-16T02:03:47;1.80;;;1.70;;
15878;SDS011;61999;51.514;14.614;2024-01-16T02:06:18;3.77;;;2.20;;
15878;SDS011;61999;51.514;14.614;2024-01-16T02:08:46;5.13;;;2.60;;
15878;SDS011;61999;51.514;14.614;2024-01-16T02:11:14;4.10;;;2.80;;
15878;SDS011;61999;51.514;14.614;2024-01-16T02:13:42;5.70;;;2.87;;
15878;SDS011;61999;51.514;14.614;2024-01-16T02:16:19;3.13;;;2.53;;
15878;SDS011;61999;51.514;14.614;2024-01-16T02:18:48;4.13;;;2.53;;
15878;SDS011;61999;51.514;14.614;2024-01-16T02:21:20;1.33;;;1.23;;
15878;SDS011;61999;51.514;14.614;2024-01-16T02:23:51;3.77;;;2.27;;
15878;SDS011;61999;51.514;14.614;2024-01-16T02:26:19;4.37;;;2.80;;
15878;SDS011;61999;51.514;14.614;2024-01-16T02:28:47;4.47;;;2.53;;
15878;SDS011;61999;51.514;14.614;2024-01-16T02:31:15;4.97;;;2.70;;
15878;SDS011;61999;51.514;14.614;2024-01-16T02:33:44;2.77;;;2.20;;
15878;SDS011;61999;51.514;14.614;2024-01-16T02:36:12;5.47;;;2.67;;
15878;SDS011;61999;51.514;14.614;2024-01-16T02:38:40;7.43;;;3.07;;
15878;SDS011;61999;51.514;14.614;2024-01-16T02:41:12;0.90;;;0.90;;
15878;SDS011;61999;51.514;14.614;2024-01-16T02:43:42;1.70;;;1.60;;
15878;SDS011;61999;51.514;14.614;2024-01-16T02:46:10;5.50;;;3.03;;
15878;SDS011;61999;51.514;14.614;2024-01-16T02:48:38;1.00;;;1.00;;
15878;SDS011;61999;51.514;14.614;2024-01-16T02:51:08;2.40;;;2.20;;
15878;SDS011;61999;51.514;14.614;2024-01-16T02:53:36;6.37;;;1.13;;
15878;SDS011;61999;51.514;14.614;2024-01-16T02:56:04;3.20;;;2.80;;
15878;SDS011;61999;51.514;14.614;2024-01-16T02:58:34;2.63;;;2.30;;
15878;SDS011;61999;51.514;14.614;2024-01-16T03:01:02;2.70;;;2.27;;
15878;SDS011;61999;51.514;14.614;2024-01-16T03:03:30;0.90;;;0.90;;
15878;SDS011;61999;51.514;14.614;2024-01-16T03:05:58;2.83;;;2.53;;
15878;SDS011;61999;51.514;14.614;2024-01-16T03:08:26;2.63;;;2.43;;
15878;SDS011;61999;51.514;14.614;2024-01-16T03:10:54;5.07;;;3.23;;
15878;SDS011;61999;51.514;14.614;2024-01-16T03:13:22;3.23;;;2.70;;
15878;SDS011;61999;51.514;14.614;2024-01-16T03:15:51;3.53;;;3.03;;
15878;SDS011;61999;51.514;14.614;2024-01-16T03:18:19;4.00;;;2.90;;
15878;SDS011;61999;51.514;14.614;2024-01-16T03:20:47;0.93;;;0.93;;
15878;SDS011;61999;51.514;14.614;2024-01-16T03:23:15;5.40;;;2.70;;
15878;SDS011;61999;51.514;14.614;2024-01-16T03:25:43;3.70;;;2.87;;
15878;SDS011;61999;51.514;14.614;2024-01-16T03:28:11;1.70;;;1.60;;
15878;SDS011;61999;51.514;14.614;2024-01-16T03:30:38;6.97;;;1.20;;
15878;SDS011;61999;51.514;14.614;2024-01-16T03:33:08;3.20;;;2.30;;
15878;SDS011;61999;51.514;14.614;2024-01-16T03:35:36;3.53;;;2.70;;
15878;SDS011;61999;51.514;14.614;2024-01-16T03:38:04;2.57;;;2.23;;
15878;SDS011;61999;51.514;14.614;2024-01-16T03:40:32;2.63;;;1.93;;
15878;SDS011;61999;51.514;14.614;2024-01-16T03:43:01;6.70;;;3.17;;
15878;SDS011;61999;51.514;14.614;2024-01-16T03:45:31;4.97;;;2.37;;
15878;SDS011;61999;51.514;14.614;2024-01-16T03:47:59;6.50;;;2.93;;
15878;SDS011;61999;51.514;14.614;2024-01-16T03:50:28;2.43;;;1.83;;
15878;SDS011;61999;51.514;14.614;2024-01-16T03:52:56;2.63;;;1.80;;
15878;SDS011;61999;51.514;14.614;2024-01-16T03:55:24;3.13;;;2.17;;
15878;SDS011;61999;51.514;14.614;2024-01-16T03:57:52;3.83;;;2.60;;
15878;SDS011;61999;51.514;14.614;2024-01-16T04:00:20;3.63;;;2.97;;
15878;SDS011;61999;51.514;14.614;2024-01-16T04:02:48;1.70;;;1.60;;
15878;SDS011;61999;51.514;14.614;2024-01-16T04:05:15;5.37;;;3.10;;
15878;SDS011;61999;51.514;14.614;2024-01-16T04:07:45;2.17;;;1.70;;
15878;SDS011;61999;51.514;14.614;2024-01-16T04:10:13;4.00;;;3.33;;
15878;SDS011;61999;51.514;14.614;2024-01-16T04:12:41;4.87;;;3.43;;
15878;SDS011;61999;51.514;14.614;2024-01-16T04:15:09;1.93;;;1.73;;
15878;SDS011;61999;51.514;14.614;2024-01-16T04:17:37;3.50;;;2.77;;
15878;SDS011;61999;51.514;14.614;2024-01-16T04:20:06;4.60;;;3.87;;
15878;SDS011;61999;51.514;14.614;2024-01-16T04:22:35;4.93;;;3.00;;
15878;SDS011;61999;51.514;14.614;2024-01-16T04:25:05;7.40;;;3.03;;
15878;SDS011;61999;51.514;14.614;2024-01-16T04:27:33;1.70;;;1.60;;
15878;SDS011;61999;51.514;14.614;2024-01-16T04:30:01;2.73;;;2.30;;
15878;SDS011;61999;51.514;14.614;2024-01-16T04:32:30;5.97;;;3.53;;
15878;SDS011;61999;51.514;14.614;2024-01-16T04:34:58;4.87;;;2.60;;
15878;SDS011;61999;51.514;14.614;2024-01-16T04:37:26;4.10;;;2.97;;
15878;SDS011;61999;51.514;14.614;2024-01-16T04:39:54;3.47;;;2.27;;
15878;SDS011;61999;51.514;14.614;2024-01-16T04:42:23;3.93;;;2.83;;
15878;SDS011;61999;51.514;14.614;2024-01-16T04:44:51;3.50;;;2.77;;
15878;SDS011;61999;51.514;14.614;2024-01-16T04:47:19;5.00;;;2.37;;
15878;SDS011;61999;51.514;14.614;2024-01-16T04:49:46;1.60;;;1.47;;
15878;SDS011;61999;51.514;14.614;2024-01-16T04:52:14;5.33;;;3.03;;
15878;SDS011;61999;51.514;14.614;2024-01-16T04:54:42;4.03;;;2.80;;
15878;SDS011;61999;51.514;14.614;2024-01-16T04:57:12;4.03;;;2.80;;
15878;SDS011;61999;51.514;14.614;2024-01-16T04:59:41;3.17;;;2.50;;
15878;SDS011;61999;51.514;14.614;2024-01-16T05:02:09;3.07;;;2.77;;
15878;SDS011;61999;51.514;14.614;2024-01-16T05:04:39;3.90;;;2.60;;
15878;SDS011;61999;51.514;14.614;2024-01-16T05:07:07;2.73;;;2.47;;
15878;SDS011;61999;51.514;14.614;2024-01-16T05:09:34;3.17;;;2.53;;
15878;SDS011;61999;51.514;14.614;2024-01-16T05:12:03;2.47;;;2.17;;
15878;SDS011;61999;51.514;14.614;2024-01-16T05:14:31;5.53;;;3.37;;
15878;SDS011;61999;51.514;14.614;2024-01-16T05:17:01;1.53;;;1.43;;
15878;SDS011;61999;51.514;14.614;2024-01-16T05:19:29;4.43;;;2.70;;
15878;SDS011;61999;51.514;14.614;2024-01-16T05:21:57;2.50;;;2.00;;
15878;SDS011;61999;51.514;14.614;2024-01-16T05:24:25;2.50;;;1.43;;
15878;SDS011;61999;51.514;14.614;2024-01-16T05:26:53;2.63;;;1.83;;
15878;SDS011;61999;51.514;14.614;2024-01-16T05:29:21;3.07;;;1.77;;
15878;SDS011;61999;51.514;14.614;2024-01-16T05:31:48;2.00;;;1.90;;
15878;SDS011;61999;51.514;14.614;2024-01-16T05:34:18;2.10;;;2.00;;
15878;SDS011;61999;51.514;14.614;2024-01-16T05:36:46;2.87;;;2.67;;
15878;SDS011;61999;51.514;14.614;2024-01-16T05:39:14;3.83;;;2.73;;
15878;SDS011;61999;51.514;14.614;2024-01-16T05:41:43;2.70;;;2.27;;
15878;SDS011;61999;51.514;14.614;2024-01-16T05:44:11;7.27;;;2.97;;
15878;SDS011;61999;51.514;14.614;2024-01-16T05:46:39;3.00;;;2.57;;
15878;SDS011;61999;51.514;14.614;2024-01-16T05:49:07;4.27;;;2.60;;
15878;SDS011;61999;51.514;14.614;2024-01-16T05:51:36;3.70;;;2.47;;
15878;SDS011;61999;51.514;14.614;2024-01-16T05:54:04;4.83;;;2.30;;
15878;SDS011;61999;51.514;14.614;2024-01-16T05:56:32;3.40;;;2.43;;
15878;SDS011;61999;51.514;14.614;2024-01-16T05:59:01;3.37;;;2.10;;
15878;SDS011;61999;51.514;14.614;2024-01-16T06:01:28;3.07;;;2.17;;
15878;SDS011;61999;51.514;14.614;2024-01-16T06:03:56;3.20;;;2.17;;
15878;SDS011;61999;51.514;14.614;2024-01-16T06:06:25;3.23;;;2.20;;
15878;SDS011;61999;51.514;14.614;2024-01-16T06:08:54;3.13;;;2.40;;
15878;SDS011;61999;51.514;14.614;2024-01-16T06:11:29;2.60;;;2.40;;
15878;SDS011;61999;51.514;14.614;2024-01-16T06:13:57;2.33;;;1.93;;
15878;SDS011;61999;51.514;14.614;2024-01-16T06:16:26;3.80;;;1.87;;
15878;SDS011;61999;51.514;14.614;2024-01-16T06:18:55;3.77;;;1.97;;
15878;SDS011;61999;51.514;14.614;2024-01-16T06:21:23;2.43;;;1.70;;
15878;SDS011;61999;51.514;14.614;2024-01-16T06:23:51;2.20;;;2.00;;
15878;SDS011;61999;51.514;14.614;2024-01-16T06:26:20;3.67;;;2.07;;
15878;SDS011;61999;51.514;14.614;2024-01-16T06:28:48;2.60;;;2.40;;
15878;SDS011;61999;51.514;14.614;2024-01-16T06:31:16;2.40;;;2.20;;
15878;SDS011;61999;51.514;14.614;2024-01-16T06:33:45;2.53;;;2.13;;
15878;SDS011;61999;51.514;14.614;2024-01-16T06:36:12;2.57;;;2.33;;
15878;SDS011;61999;51.514;14.614;2024-01-16T06:38:40;2.90;;;2.47;;
15878;SDS011;61999;51.514;14.614;2024-01-16T06:41:08;7.87;;;3.67;;
15878;SDS011;61999;51.514;14.614;2024-01-16T06:43:37;3.90;;;2.73;;
15878;SDS011;61999;51.514;14.614;2024-01-16T06:46:06;2.47;;;2.27;;
15878;SDS011;61999;51.514;14.614;2024-01-16T06:48:35;2.40;;;2.20;;
15878;SDS011;61999;51.514;14.614;2024-01-16T06:51:04;2.30;;;2.10;;
15878;SDS011;61999;51.514;14.614;2024-01-16T06:53:34;3.20;;;2.13;;
15878;SDS011;61999;51.514;14.614;2024-01-16T06:56:02;2.40;;;2.20;;
15878;SDS011;61999;51.514;14.614;2024-01-16T06:58:33;6.03;;;2.23;;
15878;SDS011;61999;51.514;14.614;2024-01-16T07:01:03;3.80;;;2.13;;
15878;SDS011;61999;51.514;14.614;2024-01-16T07:03:31;2.53;;;2.03;;
15878;SDS011;61999;51.514;14.614;2024-01-16T07:05:59;2.57;;;2.17;;
15878;SDS011;61999;51.514;14.614;2024-01-16T07:08:27;2.47;;;1.87;;
15878;SDS011;61999;51.514;14.614;2024-01-16T07:10:55;2.80;;;2.20;;
15878;SDS011;61999;51.514;14.614;2024-01-16T07:13:23;3.10;;;2.23;;
15878;SDS011;61999;51.514;14.614;2024-01-16T07:15:51;3.93;;;2.00;;
15878;SDS011;61999;51.514;14.614;2024-01-16T07:18:20;3.33;;;2.33;;
15878;SDS011;61999;51.514;14.614;2024-01-16T07:20:48;2.53;;;2.03;;
15878;SDS011;61999;51.514;14.614;2024-01-16T07:23:16;2.20;;;2.00;;
15878;SDS011;61999;51.514;14.614;2024-01-16T07:25:44;2.43;;;2.10;;
15878;SDS011;61999;51.514;14.614;2024-01-16T07:28:12;3.00;;;2.00;;
15878;SDS011;61999;51.514;14.614;2024-01-16T07:30:41;3.47;;;1.97;;
15878;SDS011;61999;51.514;14.614;2024-01-16T07:33:09;3.80;;;1.97;;
15878;SDS011;61999;51.514;14.614;2024-01-16T07:35:39;2.30;;;2.10;;
15878;SDS011;61999;51.514;14.614;2024-01-16T07:38:10;3.27;;;1.80;;
15878;SDS011;61999;51.514;14.614;2024-01-16T07:40:38;2.90;;;1.90;;
15878;SDS011;61999;51.514;14.614;2024-01-16T07:43:05;2.20;;;1.30;;
15878;SDS011;61999;51.514;14.614;2024-01-16T07:45:33;2.77;;;2.00;;
15878;SDS011;61999;51.514;14.614;2024-01-16T07:48:01;1.83;;;1.63;;
15878;SDS011;61999;51.514;14.614;2024-01-16T07:50:30;4.10;;;2.20;;
15878;SDS011;61999;51.514;14.614;2024-01-16T07:52:59;3.33;;;1.80;;
15878;SDS011;61999;51.514;14.614;2024-01-16T07:55:27;2.37;;;1.40;;
15878;SDS011;61999;51.514;14.614;2024-01-16T07:57:55;2.13;;;1.67;;
15878;SDS011;61999;51.514;14.614;2024-01-16T08:00:23;2.13;;;1.93;;
15878;SDS011;61999;51.514;14.614;2024-01-16T08:02:51;3.33;;;1.87;;
15878;SDS011;61999;51.514;14.614;2024-01-16T08:05:19;1.97;;;1.50;;
15878;SDS011;61999;51.514;14.614;2024-01-16T08:07:48;2.80;;;2.07;;
15878;SDS011;61999;51.514;14.614;2024-01-16T08:10:17;2.73;;;1.97;;
15878;SDS011;61999;51.514;14.614;2024-01-16T08:12:45;3.13;;;1.60;;
15878;SDS011;61999;51.514;14.614;2024-01-16T08:15:13;2.30;;;1.53;;
15878;SDS011;61999;51.514;14.614;2024-01-16T08:17:41;3.23;;;2.37;;
15878;SDS011;61999;51.514;14.614;2024-01-16T08:20:10;3.30;;;1.73;;
15878;SDS011;61999;51.514;14.614;2024-01-16T08:22:39;2.33;;;1.40;;
15878;SDS011;61999;51.514;14.614;2024-01-16T08:25:07;2.70;;;1.50;;
15878;SDS011;61999;51.514;14.614;2024-01-16T08:27:36;2.40;;;1.90;;
15878;SDS011;61999;51.514;14.614;2024-01-16T08:30:05;1.73;;;1.27;;
15878;SDS011;61999;51.514;14.614;2024-01-16T08:32:34;2.93;;;1.67;;
15878;SDS011;61999;51.514;14.614;2024-01-16T08:35:03;1.60;;;1.50;;
15878;SDS011;61999;51.514;14.614;2024-01-16T08:37:32;1.50;;;1.40;;
15878;SDS011;61999;51.514;14.614;2024-01-16T08:40:00;1.40;;;1.30;;
15878;SDS011;61999;51.514;14.614;2024-01-16T08:42:30;1.93;;;1.67;;
15878;SDS011;61999;51.514;14.614;2024-01-16T08:44:59;1.10;;;1.10;;
15878;SDS011;61999;51.514;14.614;2024-01-16T08:47:27;3.80;;;1.40;;
15878;SDS011;61999;51.514;14.614;2024-01-16T08:49:55;1.87;;;1.60;;
15878;SDS011;61999;51.514;14.614;2024-01-16T08:52:23;1.97;;;1.50;;
15878;SDS011;61999;51.514;14.614;2024-01-16T08:54:51;1.53;;;1.43;;
15878;SDS011;61999;51.514;14.614;2024-01-16T08:57:19;2.40;;;2.10;;
15878;SDS011;61999;51.514;14.614;2024-01-16T08:59:49;1.70;;;1.40;;
15878;SDS011;61999;51.514;14.614;2024-01-16T09:02:18;1.83;;;1.63;;
15878;SDS011;61999;51.514;14.614;2024-01-16T09:04:46;2.57;;;1.70;;
15878;SDS011;61999;51.514;14.614;2024-01-16T09:07:16;2.37;;;1.93;;
15878;SDS011;61999;51.514;14.614;2024-01-16T09:09:45;3.23;;;1.77;;
15878;SDS011;61999;51.514;14.614;2024-01-16T09:12:12;2.70;;;1.80;;
15878;SDS011;61999;51.514;14.614;2024-01-16T09:14:40;1.70;;;1.60;;
15878;SDS011;61999;51.514;14.614;2024-01-16T09:17:08;2.17;;;1.70;;
15878;SDS011;61999;51.514;14.614;2024-01-16T09:19:38;3.27;;;1.80;;
15878;SDS011;61999;51.514;14.614;2024-01-16T09:22:06;2.93;;;1.90;;
15878;SDS011;61999;51.514;14.614;2024-01-16T09:24:34;1.47;;;1.37;;
15878;SDS011;61999;51.514;14.614;2024-01-16T09:27:01;2.87;;;1.90;;
15878;SDS011;61999;51.514;14.614;2024-01-16T09:29:32;1.93;;;1.40;;
15878;SDS011;61999;51.514;14.614;2024-01-16T09:32:00;2.53;;;1.67;;
15878;SDS011;61999;51.514;14.614;2024-01-16T09:34:28;3.03;;;1.67;;
15878;SDS011;61999;51.514;14.614;2024-01-16T09:36:57;2.20;;;1.83;;
15878;SDS011;61999;51.514;14.614;2024-01-16T09:39:28;1.77;;;1.67;;
15878;SDS011;61999;51.514;14.614;2024-01-16T09:41:58;2.33;;;1.70;;
15878;SDS011;61999;51.514;14.614;2024-01-16T09:44:27;1.50;;;1.40;;
15878;SDS011;61999;51.514;14.614;2024-01-16T09:46:55;2.00;;;1.80;;
15878;SDS011;61999;51.514;14.614;2024-01-16T09:49:29;2.67;;;1.50;;
15878;SDS011;61999;51.514;14.614;2024-01-16T09:51:58;1.60;;;1.50;;
15878;SDS011;61999;51.514;14.614;2024-01-16T09:54:28;2.73;;;1.50;;
15878;SDS011;61999;51.514;14.614;2024-01-16T09:56:57;2.27;;;1.47;;
15878;SDS011;61999;51.514;14.614;2024-01-16T09:59:28;1.60;;;1.50;;
15878;SDS011;61999;51.514;14.614;2024-01-16T10:01:58;4.13;;;1.50;;
15878;SDS011;61999;51.514;14.614;2024-01-16T10:04:31;2.23;;;1.60;;
15878;SDS011;61999;51.514;14.614;2024-01-16T10:07:01;2.50;;;1.50;;
15878;SDS011;61999;51.514;14.614;2024-01-16T10:09:31;2.30;;;1.40;;
15878;SDS011;61999;51.514;14.614;2024-01-16T10:11:59;1.23;;;1.20;;
15878;SDS011;61999;51.514;14.614;2024-01-16T10:14:27;1.33;;;1.23;;
15878;SDS011;61999;51.514;14.614;2024-01-16T10:16:57;2.77;;;1.60;;
15878;SDS011;61999;51.514;14.614;2024-01-16T10:19:29;2.47;;;1.90;;
15878;SDS011;61999;51.514;14.614;2024-01-16T10:22:04;1.77;;;1.17;;
15878;SDS011;61999;51.514;14.614;2024-01-16T10:24:33;1.50;;;1.23;;
15878;SDS011;61999;51.514;14.614;2024-01-16T10:27:01;3.17;;;1.37;;
15878;SDS011;61999;51.514;14.614;2024-01-16T10:29:30;3.63;;;1.60;;
15878;SDS011;61999;51.514;14.614;2024-01-16T10:32:01;2.60;;;1.57;;
15878;SDS011;61999;51.514;14.614;2024-01-16T10:34:29;1.90;;;1.30;;
15878;SDS011;61999;51.514;14.614;2024-01-16T10:36:58;2.37;;;1.67;;
15878;SDS011;61999;51.514;14.614;2024-01-16T10:39:28;2.23;;;1.50;;
15878;SDS011;61999;51.514;14.614;2024-01-16T10:42:00;1.43;;;1.13;;
15878;SDS011;61999;51.514;14.614;2024-01-16T10:44:28;2.90;;;2.00;;
15878;SDS011;61999;51.514;14.614;2024-01-16T10:47:09;3.53;;;1.87;;
15878;SDS011;61999;51.514;14.614;2024-01-16T10:49:38;2.40;;;1.90;;
15878;SDS011;61999;51.514;14.614;2024-01-16T10:52:09;2.17;;;1.60;;
15878;SDS011;61999;51.514;14.614;2024-01-16T10:54:41;3.93;;;2.20;;
15878;SDS011;61999;51.514;14.614;2024-01-16T10:57:11;3.77;;;2.00;;
15878;SDS011;61999;51.514;14.614;2024-01-16T10:59:42;4.00;;;2.07;;
15878;SDS011;61999;51.514;14.614;2024-01-16T11:02:18;3.03;;;2.00;;
15878;SDS011;61999;51.514;14.614;2024-01-16T11:04:52;5.10;;;2.10;;
15878;SDS011;61999;51.514;14.614;2024-01-16T11:07:23;3.47;;;1.93;;
15878;SDS011;61999;51.514;14.614;2024-01-16T11:09:54;2.67;;;1.93;;
15878;SDS011;61999;51.514;14.614;2024-01-16T11:12:23;3.93;;;2.33;;
15878;SDS011;61999;51.514;14.614;2024-01-16T11:14:53;5.60;;;2.33;;
15878;SDS011;61999;51.514;14.614;2024-01-16T11:17:23;4.90;;;2.70;;
15878;SDS011;61999;51.514;14.614;2024-01-16T11:19:52;3.10;;;2.17;;
15878;SDS011;61999;51.514;14.614;2024-01-16T11:22:26;2.70;;;2.17;;
15878;SDS011;61999;51.514;14.614;2024-01-16T11:25:08;3.13;;;2.07;;
15878;SDS011;61999;51.514;14.614;2024-01-16T11:27:41;2.50;;;2.30;;
15878;SDS011;61999;51.514;14.614;2024-01-16T11:30:11;2.60;;;2.13;;
15878;SDS011;61999;51.514;14.614;2024-01-16T11:32:55;2.70;;;2.20;;
15878;SDS011;61999;51.514;14.614;2024-01-16T11:35:31;3.33;;;2.10;;
15878;SDS011;61999;51.514;14.614;2024-01-16T11:38:04;3.47;;;2.40;;
15878;SDS011;61999;51.514;14.614;2024-01-16T11:40:37;3.50;;;2.50;;
15878;SDS011;61999;51.514;14.614;2024-01-16T11:46:03;3.10;;;2.33;;
15878;SDS011;61999;51.514;14.614;2024-01-16T11:48:33;5.27;;;2.60;;
15878;SDS011;61999;51.514;14.614;2024-01-16T11:51:21;2.47;;;2.27;;
15878;SDS011;61999;51.514;14.614;2024-01-16T11:53:51;3.07;;;2.37;;
15878;SDS011;61999;51.514;14.614;2024-01-16T11:59:25;4.97;;;2.60;;
15878;SDS011;61999;51.514;14.614;2024-01-16T12:02:24;7.13;;;4.10;;
15878;SDS011;61999;51.514;14.614;2024-01-16T12:09:16;7.97;;;2.97;;
15878;SDS011;61999;51.514;14.614;2024-01-16T12:11:46;4.07;;;3.27;;
15878;SDS011;61999;51.514;14.614;2024-01-16T12:14:25;4.87;;;2.97;;
15878;SDS011;61999;51.514;14.614;2024-01-16T12:17:07;3.93;;;2.97;;
15878;SDS011;61999;51.514;14.614;2024-01-16T12:19:38;3.33;;;2.70;;
15878;SDS011;61999;51.514;14.614;2024-01-16T12:22:08;1.63;;;1.50;;
15878;SDS011;61999;51.514;14.614;2024-01-16T12:24:37;5.87;;;2.77;;
15878;SDS011;61999;51.514;14.614;2024-01-16T12:27:05;3.83;;;2.77;;
15878;SDS011;61999;51.514;14.614;2024-01-16T12:29:35;3.93;;;2.53;;
15878;SDS011;61999;51.514;14.614;2024-01-16T12:32:07;4.07;;;2.70;;
15878;SDS011;61999;51.514;14.614;2024-01-16T12:34:42;7.53;;;2.63;;
15878;SDS011;61999;51.514;14.614;2024-01-16T12:38:01;4.17;;;3.27;;
15878;SDS011;61999;51.514;14.614;2024-01-16T12:40:36;5.40;;;2.60;;
15878;SDS011;61999;51.514;14.614;2024-01-16T12:43:07;4.63;;;2.80;;
15878;SDS011;61999;51.514;14.614;2024-01-16T12:45:37;7.00;;;3.33;;
15878;SDS011;61999;51.514;14.614;2024-01-16T12:48:06;7.90;;;2.43;;
15878;SDS011;61999;51.514;14.614;2024-01-16T12:50:34;5.80;;;2.67;;
15878;SDS011;61999;51.514;14.614;2024-01-16T12:53:03;6.07;;;2.50;;
15878;SDS011;61999;51.514;14.614;2024-01-16T12:55:34;3.70;;;2.60;;
15878;SDS011;61999;51.514;14.614;2024-01-16T12:58:14;4.83;;;2.47;;
15878;SDS011;61999;51.514;14.614;2024-01-16T13:00:44;4.40;;;2.53;;
15878;SDS011;61999;51.514;14.614;2024-01-16T13:03:16;4.93;;;2.43;;
15878;SDS011;61999;51.514;14.614;2024-01-16T13:05:46;6.77;;;3.03;;
15878;SDS011;61999;51.514;14.614;2024-01-16T13:08:23;4.60;;;2.77;;
15878;SDS011;61999;51.514;14.614;2024-01-16T13:11:01;3.67;;;2.40;;
15878;SDS011;61999;51.514;14.614;2024-01-16T13:14:00;5.83;;;2.80;;
15878;SDS011;61999;51.514;14.614;2024-01-16T13:17:16;4.40;;;2.80;;
15878;SDS011;61999;51.514;14.614;2024-01-16T13:19:47;4.57;;;2.80;;
15878;SDS011;61999;51.514;14.614;2024-01-16T13:22:15;8.17;;;3.30;;
15878;SDS011;61999;51.514;14.614;2024-01-16T13:24:43;4.33;;;2.73;;
15878;SDS011;61999;51.514;14.614;2024-01-16T13:27:13;6.50;;;3.20;;
15878;SDS011;61999;51.514;14.614;2024-01-16T13:29:42;7.27;;;2.97;;
15878;SDS011;61999;51.514;14.614;2024-01-16T13:32:11;5.57;;;3.17;;
15878;SDS011;61999;51.514;14.614;2024-01-16T13:34:40;4.10;;;3.10;;
15878;SDS011;61999;51.514;14.614;2024-01-16T13:37:21;2.77;;;2.37;;
15878;SDS011;61999;51.514;14.614;2024-01-16T13:39:50;5.73;;;2.90;;
15878;SDS011;61999;51.514;14.614;2024-01-16T13:42:18;7.17;;;3.23;;
15878;SDS011;61999;51.514;14.614;2024-01-16T13:44:48;5.67;;;3.23;;
15878;SDS011;61999;51.514;14.614;2024-01-16T13:47:56;6.73;;;2.70;;
15878;SDS011;61999;51.514;14.614;2024-01-16T13:50:26;4.77;;;2.90;;
15878;SDS011;61999;51.514;14.614;2024-01-16T13:52:54;4.93;;;2.83;;
15878;SDS011;61999;51.514;14.614;2024-01-16T13:55:22;5.13;;;3.40;;
15878;SDS011;61999;51.514;14.614;2024-01-16T13:57:50;5.97;;;3.37;;
15878;SDS011;61999;51.514;14.614;2024-01-16T14:00:18;6.63;;;3.50;;
15878;SDS011;61999;51.514;14.614;2024-01-16T14:02:47;3.90;;;3.10;;
15878;SDS011;61999;51.514;14.614;2024-01-16T14:05:16;5.40;;;3.13;;
15878;SDS011;61999;51.514;14.614;2024-01-16T14:07:53;4.37;;;3.10;;
15878;SDS011;61999;51.514;14.614;2024-01-16T14:10:21;4.10;;;3.03;;
15878;SDS011;61999;51.514;14.614;2024-01-16T14:12:51;5.80;;;3.03;;
15878;SDS011;61999;51.514;14.614;2024-01-16T14:15:20;5.97;;;3.27;;
15878;SDS011;61999;51.514;14.614;2024-01-16T14:18:12;5.30;;;3.33;;
15878;SDS011;61999;51.514;14.614;2024-01-16T14:20:40;4.87;;;3.53;;
15878;SDS011;61999;51.514;14.614;2024-01-16T14:23:11;5.70;;;3.60;;
15878;SDS011;61999;51.514;14.614;2024-01-16T14:25:39;6.77;;;4.23;;
15878;SDS011;61999;51.514;14.614;2024-01-16T14:28:08;6.33;;;3.70;;
15878;SDS011;61999;51.514;14.614;2024-01-16T14:30:43;7.13;;;4.63;;
15878;SDS011;61999;51.514;14.614;2024-01-16T14:33:11;6.67;;;3.80;;
15878;SDS011;61999;51.514;14.614;2024-01-16T14:35:39;7.60;;;4.37;;
15878;SDS011;61999;51.514;14.614;2024-01-16T14:38:08;7.87;;;4.30;;
15878;SDS011;61999;51.514;14.614;2024-01-16T14:40:38;6.67;;;4.07;;
15878;SDS011;61999;51.514;14.614;2024-01-16T14:43:06;7.43;;;3.70;;
15878;SDS011;61999;51.514;14.614;2024-01-16T14:45:36;3.27;;;2.53;;
15878;SDS011;61999;51.514;14.614;2024-01-16T14:48:06;5.40;;;3.60;;
15878;SDS011;61999;51.514;14.614;2024-01-16T14:50:36;9.20;;;3.80;;
15878;SDS011;61999;51.514;14.614;2024-01-16T14:53:06;4.97;;;3.50;;
15878;SDS011;61999;51.514;14.614;2024-01-16T14:55:37;7.53;;;3.97;;
15878;SDS011;61999;51.514;14.614;2024-01-16T14:58:06;5.30;;;3.90;;
15878;SDS011;61999;51.514;14.614;2024-01-16T15:00:34;13.23;;;4.60;;